Time;durP1;ratioP1;P1;durP2;ratioP2;P2;SDS_P1;SDS_P2;PMS_P1;PMS_P2;Temp;Humidity;BMP_temperature;BMP_pressure;BME280_temperature;BME280_humidity;BME280_pressure;Samples;Min_cycle;Max_cycle;Signal;HPM_P1;HPM_P2
2023/05/14 00:01:39;;;;;;;;;;;;;;;;;;5047584;28;1229;-60
2023/05/14 00:04:04;;;;;;;;;;;;;;;;;;5045584;28;4671;-60
2023/05/14 00:06:30;;;;;;;;;;;;;;;;;;5043682;28;4817;-60
2023/05/14 00:08:56;;;;;;;;;;;;;;;;;;5050851;28;5091;-59
2023/05/14 00:11:21;;;;;;;;;;;;;;;;;;5050220;28;4951;-60
2023/05/14 00:13:46;;;;;;;;;;;;;;;;;;5049763;28;3381;-59
2023/05/14 00:16:12;;;;;;;;;;;;;;;;;;5050661;28;4968;-59
2023/05/14 00:18:37;;;;;;;;;;;;;;;;;;5044013;28;4822;-60
2023/05/14 00:21:02;;;;;;;;;;;;;;;;;;5050860;28;4661;-60
2023/05/14 00:23:27;;;;;;;;;;;;;;;;;;5049932;28;4594;-60
2023/05/14 00:25:53;;;;;;;;;;;;;;;;;;5049872;28;1149;-60
2023/05/14 00:28:18;;;;;;;;;;;;;;;;;;5050228;28;4993;-59
2023/05/14 00:30:43;;;;;;;;;;;;;;;;;;5050830;28;5163;-60
2023/05/14 00:33:08;;;;;;;;;;;;;;;;;;5049992;28;5054;-60
2023/05/14 00:35:34;;;;;;;;;;;;;;;;;;5049285;28;4524;-60
2023/05/14 00:38:00;;;;;;;;;;;;;;;;;;5051040;28;1306;-59
2023/05/14 00:40:25;;;;;;;;;;;;;;;;;;5050258;28;4871;-59
2023/05/14 00:42:51;;;;;;;;;;;;;;;;;;5050664;28;4599;-60
2023/05/14 00:45:16;;;;;;;;;;;;;;;;;;5050605;28;4592;-59
2023/05/14 00:47:41;;;;;;;;;;;;;;;;;;5050943;28;4926;-59
2023/05/14 00:50:07;;;;;;;;;;;;;;;;;;5063485;28;5026;-59
2023/05/14 00:52:32;;;;;;;;;;;;;;;;;;5049813;28;1411;-59
2023/05/14 00:54:57;;;;;;;;;;;;;;;;;;5049923;28;4844;-59
2023/05/14 00:57:23;;;;;;;;;;;;;;;;;;5049125;28;4510;-59
2023/05/14 00:59:48;;;;;;;;;;;;;;;;;;5048537;28;4504;-59
2023/05/14 01:02:13;;;;;;;;;;;;;;;;;;5058974;28;5017;-59
2023/05/14 01:04:38;;;;;;;;;;;;;;;;;;5048267;28;3138;-59
2023/05/14 01:07:07;;;;;;;;;;;;;;;;;;5050495;28;4971;-59
2023/05/14 01:09:52;;;;;;;;;;;;;;;;;;5047028;28;4616;-58
2023/05/14 01:12:24;;;;;;;;;;;;;;;;;;5049303;28;5187;-59
2023/05/14 01:14:50;;;;;;;;;;;;;;;;;;5042777;28;4477;-59
2023/05/14 01:17:18;;;;;;;;;;;;;;;;;;5048471;28;4618;-59
2023/05/14 01:19:44;;;;;;;;;;;;;;;;;;5050253;28;1163;-60
2023/05/14 01:22:10;;;;;;;;;;;;;;;;;;5049524;28;4999;-58
2023/05/14 01:24:35;;;;;;;;;;;;;;;;;;5048346;28;4536;-59
2023/05/14 01:27:02;;;;;;;;;;;;;;;;;;5049636;28;4619;-59
2023/05/14 01:29:28;;;;;;;;;;;;;;;;;;5042300;28;5041;-61
2023/05/14 01:31:53;;;;;;;;;;;;;;;;;;5065289;28;3173;-60
2023/05/14 01:34:19;;;;;;;;;;;;;;;;;;5048401;28;4944;-60
2023/05/14 01:36:44;;;;;;;;;;;;;;;;;;5048396;28;5194;-61
2023/05/14 01:39:09;;;;;;;;;;;;;;;;;;5049693;28;5019;-61
2023/05/14 01:41:35;;;;;;;;;;;;;;;;;;5045685;28;4672;-60
2023/05/14 01:44:00;;;;;;;;;;;;;;;;;;5048293;28;2269;-60
2023/05/14 01:46:29;;;;;;;;;;;;;;;;;;5048656;28;4481;-61
2023/05/14 01:48:55;;;;;;;;;;;;;;;;;;5046664;28;4457;-61
2023/05/14 01:51:20;;;;;;;;;;;;;;;;;;5047299;28;4647;-60
2023/05/14 01:53:45;;;;;;;;;;;;;;;;;;5048923;28;5117;-60
2023/05/14 01:56:10;;;;;;;;;;;;;;;;;;5048901;28;4555;-61
2023/05/14 01:58:36;;;;;;;;;;;;;;;;;;5049553;28;1138;-61
2023/05/14 02:01:01;;;;;;;;;;;;;;;;;;5048701;28;4580;-61
2023/05/14 02:03:26;;;;;;;;;;;;;;;;;;5049028;28;4524;-61
2023/05/14 02:05:51;;;;;;;;;;;;;;;;;;5044942;28;4687;-58
2023/05/14 02:08:17;;;;;;;;;;;;;;;;;;5048260;28;4545;-60
2023/05/14 02:10:42;;;;;;;;;;;;;;;;;;5048729;28;4672;-58
2023/05/14 02:13:08;;;;;;;;;;;;;;;;;;5048802;28;4417;-59
2023/05/14 02:15:33;;;;;;;;;;;;;;;;;;5048063;28;5409;-59
2023/05/14 02:17:59;;;;;;;;;;;;;;;;;;5046293;28;4512;-61
2023/05/14 02:20:24;;;;;;;;;;;;;;;;;;5048560;28;4646;-61
2023/05/14 02:22:49;;;;;;;;;;;;;;;;;;5049018;28;1229;-60
2023/05/14 02:25:14;;;;;;;;;;;;;;;;;;5048320;28;4428;-61
2023/05/14 02:27:40;;;;;;;;;;;;;;;;;;5048413;28;4511;-59
2023/05/14 02:30:05;;;;;;;;;;;;;;;;;;5046061;28;4489;-61
2023/05/14 02:32:30;;;;;;;;;;;;;;;;;;5048374;28;4666;-60
2023/05/14 02:34:56;;;;;;;;;;;;;;;;;;5048051;28;3220;-60
2023/05/14 02:37:21;;;;;;;;;;;;;;;;;;5048126;28;4822;-60
2023/05/14 02:39:46;;;;;;;;;;;;;;;;;;5047007;28;5000;-60
2023/05/14 02:42:11;;;;;;;;;;;;;;;;;;5047294;28;4587;-60
2023/05/14 02:44:37;;;;;;;;;;;;;;;;;;5047838;28;5100;-60
2023/05/14 02:47:02;;;;;;;;;;;;;;;;;;5043545;28;3236;-60
2023/05/14 02:49:27;;;;;;;;;;;;;;;;;;5047906;28;4364;-60
2023/05/14 02:51:53;;;;;;;;;;;;;;;;;;5047850;28;4461;-60
2023/05/14 02:54:18;;;;;;;;;;;;;;;;;;5047652;28;4530;-60
2023/05/14 02:56:43;;;;;;;;;;;;;;;;;;5047831;28;4482;-59
2023/05/14 02:59:09;;;;;;;;;;;;;;;;;;5047764;28;5104;-60
2023/05/14 03:01:34;;;;;;;;;;;;;;;;;;5048471;28;1144;-60
2023/05/14 03:03:59;;;;;;;;;;;;;;;;;;5046638;28;4437;-60
2023/05/14 03:06:25;;;;;;;;;;;;;;;;;;5042442;28;4657;-60
2023/05/14 03:08:50;;;;;;;;;;;;;;;;;;5047682;28;4504;-60
2023/05/14 03:11:15;;;;;;;;;;;;;;;;;;5047702;28;4866;-60
2023/05/14 03:13:40;;;;;;;;;;;;;;;;;;5047515;28;3259;-60
2023/05/14 03:16:06;;;;;;;;;;;;;;;;;;5047647;28;5046;-60
2023/05/14 03:18:33;;;;;;;;;;;;;;;;;;5045620;28;4644;-60
2023/05/14 03:20:58;;;;;;;;;;;;;;;;;;5046861;28;4996;-60
2023/05/14 03:23:23;;;;;;;;;;;;;;;;;;5047519;28;4593;-60
2023/05/14 03:25:49;;;;;;;;;;;;;;;;;;5047981;28;1102;-60
2023/05/14 03:28:15;;;;;;;;;;;;;;;;;;5047681;28;4460;-60
2023/05/14 03:30:40;;;;;;;;;;;;;;;;;;5047146;28;5066;-60
2023/05/14 03:33:05;;;;;;;;;;;;;;;;;;5047562;28;4450;-60
2023/05/14 03:35:31;;;;;;;;;;;;;;;;;;5047288;28;4712;-60
2023/05/14 03:37:58;;;;;;;;;;;;;;;;;;5047870;28;1442;-60
2023/05/14 03:40:23;;;;;;;;;;;;;;;;;;5042208;28;5110;-61
2023/05/14 03:42:48;;;;;;;;;;;;;;;;;;5050620;28;4686;-61
2023/05/14 03:45:13;;;;;;;;;;;;;;;;;;5051521;28;4517;-61
2023/05/14 03:47:39;;;;;;;;;;;;;;;;;;5046048;28;5560;-61
2023/05/14 03:50:04;;;;;;;;;;;;;;;;;;5046733;28;1863;-61
2023/05/14 03:52:30;;;;;;;;;;;;;;;;;;5050662;28;4552;-61
2023/05/14 03:54:55;;;;;;;;;;;;;;;;;;5050104;28;5038;-61
2023/05/14 03:57:20;;;;;;;;;;;;;;;;;;5050520;28;4897;-60
2023/05/14 03:59:46;;;;;;;;;;;;;;;;;;5050971;28;4666;-60
2023/05/14 04:02:11;;;;;;;;;;;;;;;;;;5051215;28;5138;-60
2023/05/14 04:04:36;;;;;;;;;;;;;;;;;;5048357;28;1971;-61
2023/05/14 04:07:01;;;;;;;;;;;;;;;;;;5050621;28;4705;-60
2023/05/14 04:09:27;;;;;;;;;;;;;;;;;;5050864;28;4564;-60
2023/05/14 04:11:52;;;;;;;;;;;;;;;;;;5050982;28;5084;-60
2023/05/14 04:14:17;;;;;;;;;;;;;;;;;;5050680;28;4673;-60
2023/05/14 04:16:42;;;;;;;;;;;;;;;;;;5048761;28;1349;-61
2023/05/14 04:19:08;;;;;;;;;;;;;;;;;;5049766;28;4857;-59
2023/05/14 04:21:33;;;;;;;;;;;;;;;;;;5050623;28;5105;-61
2023/05/14 04:23:58;;;;;;;;;;;;;;;;;;5050650;28;5149;-60
2023/05/14 04:26:24;;;;;;;;;;;;;;;;;;5050476;28;4698;-60
2023/05/14 04:28:49;;;;;;;;;;;;;;;;;;5051233;28;1249;-60
2023/05/14 04:31:14;;;;;;;;;;;;;;;;;;5050784;28;4574;-61
2023/05/14 04:33:40;;;;;;;;;;;;;;;;;;5050524;28;4920;-60
2023/05/14 04:36:05;;;;;;;;;;;;;;;;;;5049533;28;4583;-60
2023/05/14 04:38:30;;;;;;;;;;;;;;;;;;5049252;28;4769;-61
2023/05/14 04:40:56;;;;;;;;;;;;;;;;;;5048184;28;3322;-60
2023/05/14 04:43:21;;;;;;;;;;;;;;;;;;5048168;28;4580;-61
2023/05/14 04:45:46;;;;;;;;;;;;;;;;;;5048025;28;4665;-60
2023/05/14 04:48:12;;;;;;;;;;;;;;;;;;5043219;28;4723;-61
2023/05/14 04:50:37;;;;;;;;;;;;;;;;;;5048320;28;4891;-61
2023/05/14 04:53:02;;;;;;;;;;;;;;;;;;5048298;28;3255;-61
2023/05/14 04:55:28;;;;;;;;;;;;;;;;;;5048404;28;5048;-60
2023/05/14 04:57:53;;;;;;;;;;;;;;;;;;5048993;28;4488;-60
2023/05/14 05:00:20;;;;;;;;;;;;;;;;;;5049324;28;4500;-61
2023/05/14 05:02:45;;;;;;;;;;;;;;;;;;5048001;28;4515;-60
2023/05/14 05:05:11;;;;;;;;;;;;;;;;;;5044462;28;4541;-60
2023/05/14 05:07:36;;;;;;;;;;;;;;;;;;5047722;28;1484;-59
2023/05/14 05:10:01;;;;;;;;;;;;;;;;;;5048750;28;5363;-60
2023/05/14 05:12:28;;;;;;;;;;;;;;;;;;5048708;28;4708;-60
2023/05/14 05:14:54;;;;;;;;;;;;;;;;;;5048282;28;4601;-59
2023/05/14 05:17:19;;;;;;;;;;;;;;;;;;5047481;28;4471;-59
2023/05/14 05:19:45;;;;;;;;;;;;;;;;;;5049880;28;1389;-59
2023/05/14 05:22:10;;;;;;;;;;;;;;;;;;5048530;28;4641;-59
2023/05/14 05:24:35;;;;;;;;;;;;;;;;;;5048505;28;5126;-60
2023/05/14 05:27:00;;;;;;;;;;;;;;;;;;5048399;28;4633;-59
2023/05/14 05:29:26;;;;;;;;;;;;;;;;;;5047628;28;4633;-60
2023/05/14 05:31:51;;;;;;;;;;;;;;;;;;5048754;28;1139;-60
2023/05/14 05:34:16;;;;;;;;;;;;;;;;;;5048331;28;4740;-60
2023/05/14 05:36:41;;;;;;;;;;;;;;;;;;5001439;28;1347007;-59
2023/05/14 05:39:07;;;;;;;;;;;;;;;;;;5048979;28;4507;-60
2023/05/14 05:41:32;;;;;;;;;;;;;;;;;;5049339;28;4441;-60
2023/05/14 05:43:57;;;;;;;;;;;;;;;;;;5049327;28;1993;-60
2023/05/14 05:46:22;;;;;;;;;;;;;;;;;;5048689;28;4597;-60
2023/05/14 05:48:48;;;;;;;;;;;;;;;;;;5047526;28;5016;-60
2023/05/14 05:51:13;;;;;;;;;;;;;;;;;;5048950;28;4436;-60
2023/05/14 05:53:38;;;;;;;;;;;;;;;;;;5046876;28;4569;-60
2023/05/14 05:56:04;;;;;;;;;;;;;;;;;;5046563;28;3360;-59
2023/05/14 05:58:29;;;;;;;;;;;;;;;;;;5053475;28;4582;-60
2023/05/14 06:00:56;;;;;;;;;;;;;;;;;;5047562;28;4599;-60
2023/05/14 06:03:22;;;;;;;;;;;;;;;;;;5046633;28;4675;-60
2023/05/14 06:05:47;;;;;;;;;;;;;;;;;;5047935;28;4485;-60
2023/05/14 06:08:12;;;;;;;;;;;;;;;;;;5051889;28;4537;-60
2023/05/14 06:10:37;;;;;;;;;;;;;;;;;;5048589;28;4798;-60
2023/05/14 06:13:03;;;;;;;;;;;;;;;;;;5046661;28;4808;-60
2023/05/14 06:15:28;;;;;;;;;;;;;;;;;;5051598;28;4585;-61
2023/05/14 06:17:53;;;;;;;;;;;;;;;;;;5045268;28;5483;-60
2023/05/14 06:20:18;;;;;;;;;;;;;;;;;;5042580;28;4937;-60
2023/05/14 06:22:44;;;;;;;;;;;;;;;;;;5047867;28;3314;-60
2023/05/14 06:25:09;;;;;;;;;;;;;;;;;;5038217;28;4440;-58
2023/05/14 06:27:35;;;;;;;;;;;;;;;;;;5043887;28;4605;-59
2023/05/14 06:30:00;;;;;;;;;;;;;;;;;;5036680;28;4944;-60
2023/05/14 06:32:25;;;;;;;;;;;;;;;;;;5040353;28;4669;-60
2023/05/14 06:34:50;;;;;;;;;;;;;;;;;;5070436;28;3424;-60
2023/05/14 06:37:15;;;;;;;;;;;;;;;;;;5043698;28;5047;-59
2023/05/14 06:39:48;;;;;;;;;;;;;;;;;;5035559;28;4689;-59
2023/05/14 06:42:14;;;;;;;;;;;;;;;;;;5037060;28;5012;-60
2023/05/14 06:44:40;;;;;;;;;;;;;;;;;;5033458;28;4546;-63
2023/05/14 06:47:07;;;;;;;;;;;;;;;;;;5043710;28;5029;-59
2023/05/14 06:49:32;;;;;;;;;;;;;;;;;;5047855;28;2307;-60
2023/05/14 06:51:58;;;;;;;;;;;;;;;;;;5047461;28;4639;-60
2023/05/14 06:54:23;;;;;;;;;;;;;;;;;;5046721;28;4658;-63
2023/05/14 06:56:48;;;;;;;;;;;;;;;;;;5045891;28;4487;-63
2023/05/14 06:59:13;;;;;;;;;;;;;;;;;;5048656;28;4684;-65
2023/05/14 07:01:39;;;;;;;;;;;;;;;;;;5047040;28;3449;-64
2023/05/14 07:04:04;;;;;;;;;;;;;;;;;;5031240;28;6330;-62
2023/05/14 07:06:30;;;;;;;;;;;;;;;;;;5028845;28;5133;-61
2023/05/14 07:08:55;;;;;;;;;;;;;;;;;;5032851;28;5234;-63
2023/05/14 07:11:21;;;;;;;;;;;;;;;;;;5033553;28;5194;-63
2023/05/14 07:13:46;;;;;;;;;;;;;;;;;;5046855;28;4713;-63
2023/05/14 07:16:11;;;;;;;;;;;;;;;;;;5047654;28;1123;-64
2023/05/14 07:18:36;;;;;;;;;;;;;;;;;;5034683;28;1376;-64
2023/05/14 07:21:03;;;;;;;;;;;;;;;;;;5039673;28;1880;-62
2023/05/14 07:23:29;;;;;;;;;;;;;;;;;;5046645;28;1109;-60
2023/05/14 07:25:54;;;;;;;;;;;;;;;;;;5035279;28;1930;-61
2023/05/14 07:28:19;;;;;;;;;;;;;;;;;;5047090;28;1967;-63
2023/05/14 07:30:44;;;;;;;;;;;;;;;;;;5036780;28;6811;-62
2023/05/14 07:33:10;;;;;;;;;;;;;;;;;;5041605;28;5165;-62
2023/05/14 07:35:35;;;;;;;;;;;;;;;;;;5028774;28;4548;-61
2023/05/14 07:38:00;;;;;;;;;;;;;;;;;;5025084;28;5254;-60
2023/05/14 07:40:26;;;;;;;;;;;;;;;;;;5025962;28;3741;-62
2023/05/14 07:42:51;;;;;;;;;;;;;;;;;;5039095;28;4726;-61
2023/05/14 07:45:16;;;;;;;;;;;;;;;;;;5046602;28;4492;-62
2023/05/14 07:47:41;;;;;;;;;;;;;;;;;;5041318;28;5341;-61
2023/05/14 07:50:07;;;;;;;;;;;;;;;;;;5043413;28;4534;-62
2023/05/14 07:52:32;;;;;;;;;;;;;;;;;;5046689;28;3399;-63
2023/05/14 07:54:58;;;;;;;;;;;;;;;;;;5045577;28;4589;-62
2023/05/14 07:57:24;;;;;;;;;;;;;;;;;;5051676;28;5083;-62
2023/05/14 07:59:49;;;;;;;;;;;;;;;;;;5052601;28;5000;-61
2023/05/14 08:02:15;;;;;;;;;;;;;;;;;;5041020;28;6247;-63
2023/05/14 08:04:40;;;;;;;;;;;;;;;;;;5036975;28;5489;-61
2023/05/14 08:07:07;;;;;;;;;;;;;;;;;;5053571;28;5266;-62
2023/05/14 08:09:32;;;;;;;;;;;;;;;;;;5041376;28;4671;-61
2023/05/14 08:11:58;;;;;;;;;;;;;;;;;;5026278;28;5112;-61
2023/05/14 08:14:23;;;;;;;;;;;;;;;;;;5032235;28;4586;-62
2023/05/14 08:16:48;;;;;;;;;;;;;;;;;;5027611;28;3907;-57
2023/05/14 08:19:14;;;;;;;;;;;;;;;;;;5027015;28;5136;-61
2023/05/14 08:21:39;;;;;;;;;;;;;;;;;;5029111;28;5469;-64
2023/05/14 08:24:05;;;;;;;;;;;;;;;;;;5030622;28;4482;-61
2023/05/14 08:26:30;;;;;;;;;;;;;;;;;;5034587;28;4904;-63
2023/05/14 08:28:55;;;;;;;;;;;;;;;;;;5036727;28;3836;-64
2023/05/14 08:31:21;;;;;;;;;;;;;;;;;;5033084;28;4500;-61
2023/05/14 08:33:46;;;;;;;;;;;;;;;;;;5031833;28;4495;-61
2023/05/14 08:36:12;;;;;;;;;;;;;;;;;;5033034;28;5375;-63
2023/05/14 08:38:37;;;;;;;;;;;;;;;;;;5049840;28;6324;-52
2023/05/14 08:41:04;;;;;;;;;;;;;;;;;;5031405;28;3801;-49
2023/05/14 08:43:36;;;;;;;;;;;;;;;;;;5026445;28;4649;-51
2023/05/14 08:46:01;;;;;;;;;;;;;;;;;;5037436;28;5007;-52
2023/05/14 08:48:28;;;;;;;;;;;;;;;;;;5026586;28;5120;-53
2023/05/14 08:50:53;;;;;;;;;;;;;;;;;;5027116;28;5112;-50
2023/05/14 08:53:18;;;;;;;;;;;;;;;;;;5028435;28;3745;-57
2023/05/14 08:55:44;;;;;;;;;;;;;;;;;;5029791;28;4973;-57
2023/05/14 08:58:09;;;;;;;;;;;;;;;;;;5025256;28;5134;-56
2023/05/14 09:00:34;;;;;;;;;;;;;;;;;;5034125;28;4473;-57
2023/05/14 09:02:59;;;;;;;;;;;;;;;;;;5025095;28;4644;-57
2023/05/14 09:05:25;;;;;;;;;;;;;;;;;;5020266;28;4539;-54
2023/05/14 09:07:50;;;;;;;;;;;;;;;;;;5029776;28;3880;-56
2023/05/14 09:10:16;;;;;;;;;;;;;;;;;;5026622;28;5061;-58
2023/05/14 09:12:41;;;;;;;;;;;;;;;;;;5026749;28;6392;-57
2023/05/14 09:15:06;;;;;;;;;;;;;;;;;;5051922;28;4536;-59
2023/05/14 09:17:32;;;;;;;;;;;;;;;;;;5039762;28;4553;-59
2023/05/14 09:19:57;;;;;;;;;;;;;;;;;;5031763;28;5202;-57
2023/05/14 09:22:22;;;;;;;;;;;;;;;;;;5068333;28;4701;-57
2023/05/14 09:25:08;;;;;;;;;;;;;;;;;;5036469;28;5463;-57
2023/05/14 09:27:33;;;;;;;;;;;;;;;;;;5026676;28;4698;-57
2023/05/14 09:30:05;;;;;;;;;;;;;;;;;;5026859;28;4532;-57
2023/05/14 09:32:36;;;;;;;;;;;;;;;;;;5025814;28;4568;-57
2023/05/14 09:35:16;;;;;;;;;;;;;;;;;;5025645;28;4014;-55
2023/05/14 09:37:42;;;;;;;;;;;;;;;;;;5034521;28;4435;-56
2023/05/14 09:40:08;;;;;;;;;;;;;;;;;;5028058;28;4763;-55
2023/05/14 09:42:33;;;;;;;;;;;;;;;;;;5029231;28;5174;-55
2023/05/14 09:44:58;;;;;;;;;;;;;;;;;;5065522;28;4566;-56
2023/05/14 09:47:23;;;;;;;;;;;;;;;;;;5029515;28;5050;-56
2023/05/14 09:49:49;;;;;;;;;;;;;;;;;;5028435;28;3894;-54
2023/05/14 09:52:17;;;;;;;;;;;;;;;;;;5023995;28;4769;-55
2023/05/14 09:54:42;;;;;;;;;;;;;;;;;;5025772;28;4641;-56
2023/05/14 09:57:07;;;;;;;;;;;;;;;;;;5031074;28;5254;-58
2023/05/14 09:59:32;;;;;;;;;;;;;;;;;;5048582;28;4578;-57
2023/05/14 10:01:58;;;;;;;;;;;;;;;;;;5047406;28;3398;-58
2023/05/14 10:04:23;;;;;;;;;;;;;;;;;;5058786;28;4401;-56
2023/05/14 10:06:49;;;;;;;;;;;;;;;;;;5047690;28;4587;-56
2023/05/14 10:09:15;;;;;;;;;;;;;;;;;;5045030;28;5000;-58
2023/05/14 10:11:41;;;;;;;;;;;;;;;;;;5038599;28;4906;-57
2023/05/14 10:14:07;;;;;;;;;;;;;;;;;;5046061;28;1242;-56
2023/05/14 10:16:33;;;;;;;;;;;;;;;;;;5053335;28;4521;-56
2023/05/14 10:19:09;;;;;;;;;;;;;;;;;;5045761;28;4401;-58
2023/05/14 10:21:35;;;;;;;;;;;;;;;;;;5057666;28;4428;-57
2023/05/14 10:24:00;;;;;;;;;;;;;;;;;;5047211;28;5089;-56
2023/05/14 10:26:26;;;;;;;;;;;;;;;;;;5047819;28;5073;-55
2023/05/14 10:28:51;;;;;;;;;;;;;;;;;;5048825;28;1206;-57
2023/05/14 10:31:17;;;;;;;;;;;;;;;;;;5047893;28;4581;-57
2023/05/14 10:33:49;;;;;;;;;;;;;;;;;;5047743;28;4452;-55
2023/05/14 10:36:14;;;;;;;;;;;;;;;;;;5043284;28;4534;-57
2023/05/14 10:38:39;;;;;;;;;;;;;;;;;;5047693;28;4481;-56
2023/05/14 10:41:06;;;;;;;;;;;;;;;;;;5048329;28;1238;-57
2023/05/14 10:43:35;;;;;;;;;;;;;;;;;;5047277;28;4480;-56
2023/05/14 10:46:01;;;;;;;;;;;;;;;;;;5044007;28;4972;-57
2023/05/14 10:48:26;;;;;;;;;;;;;;;;;;5042352;28;4639;-56
2023/05/14 10:50:52;;;;;;;;;;;;;;;;;;5045855;28;5090;-57
2023/05/14 10:53:17;;;;;;;;;;;;;;;;;;5047673;28;3349;-58
2023/05/14 10:55:42;;;;;;;;;;;;;;;;;;5046485;28;4558;-57
2023/05/14 10:58:08;;;;;;;;;;;;;;;;;;5044447;28;4899;-57
2023/05/14 11:00:33;;;;;;;;;;;;;;;;;;5045586;28;5112;-57
2023/05/14 11:02:58;;;;;;;;;;;;;;;;;;5032099;28;5169;-58
2023/05/14 11:05:26;;;;;;;;;;;;;;;;;;5047560;28;4517;-57
2023/05/14 11:07:51;;;;;;;;;;;;;;;;;;5047806;28;2328;-57
2023/05/14 11:10:17;;;;;;;;;;;;;;;;;;5047370;28;4626;-57
2023/05/14 11:12:43;;;;;;;;;;;;;;;;;;5047068;28;4621;-57
2023/05/14 11:15:09;;;;;;;;;;;;;;;;;;5047372;28;4621;-58
2023/05/14 11:17:34;;;;;;;;;;;;;;;;;;5040985;28;4591;-58
2023/05/14 11:20:00;;;;;;;;;;;;;;;;;;5046198;28;2376;-58
2023/05/14 11:22:25;;;;;;;;;;;;;;;;;;5046981;28;4471;-58
2023/05/14 11:24:50;;;;;;;;;;;;;;;;;;5047094;28;4830;-58
2023/05/14 11:27:16;;;;;;;;;;;;;;;;;;5047525;28;4444;-58
2023/05/14 11:29:45;;;;;;;;;;;;;;;;;;5046939;28;4534;-58
2023/05/14 11:32:10;;;;;;;;;;;;;;;;;;5047800;28;1098;-58
2023/05/14 11:34:36;;;;;;;;;;;;;;;;;;5045710;28;4658;-58
2023/05/14 11:37:04;;;;;;;;;;;;;;;;;;5046919;28;4471;-58
2023/05/14 11:39:33;;;;;;;;;;;;;;;;;;5047104;28;5286;-57
2023/05/14 11:41:58;;;;;;;;;;;;;;;;;;5047179;28;4660;-57
2023/05/14 11:44:23;;;;;;;;;;;;;;;;;;5047143;28;4488;-57
2023/05/14 11:46:55;;;;;;;;;;;;;;;;;;5045660;28;1348;-57
2023/05/14 11:49:22;;;;;;;;;;;;;;;;;;5044066;28;4648;-57
2023/05/14 11:51:47;;;;;;;;;;;;;;;;;;5047021;28;5275;-57
2023/05/14 11:54:12;;;;;;;;;;;;;;;;;;5046912;28;5645;-57
2023/05/14 11:56:38;;;;;;;;;;;;;;;;;;5046908;28;4820;-58
2023/05/14 11:59:03;;;;;;;;;;;;;;;;;;5047778;28;1197;-58
2023/05/14 12:01:33;;;;;;;;;;;;;;;;;;5046816;28;5192;-57
2023/05/14 12:03:59;;;;;;;;;;;;;;;;;;5045985;28;4476;-57
2023/05/14 12:06:29;;;;;;;;;;;;;;;;;;5050314;28;4455;-57
2023/05/14 12:08:54;;;;;;;;;;;;;;;;;;5050727;28;4477;-57
2023/05/14 12:11:20;;;;;;;;;;;;;;;;;;5051572;28;4755;-57
2023/05/14 12:13:45;;;;;;;;;;;;;;;;;;5050494;28;4339;-56
2023/05/14 12:16:10;;;;;;;;;;;;;;;;;;5050411;28;5130;-57
2023/05/14 12:18:35;;;;;;;;;;;;;;;;;;5050004;28;4631;-57
2023/05/14 12:21:04;;;;;;;;;;;;;;;;;;5050164;28;5155;-57
2023/05/14 12:23:29;;;;;;;;;;;;;;;;;;5064034;28;5202;-57
2023/05/14 12:25:54;;;;;;;;;;;;;;;;;;5050574;28;2186;-57
2023/05/14 12:28:21;;;;;;;;;;;;;;;;;;5045927;28;4661;-58
2023/05/14 12:30:47;;;;;;;;;;;;;;;;;;5050254;28;4426;-57
2023/05/14 12:33:13;;;;;;;;;;;;;;;;;;5049431;28;5438;-57
2023/05/14 12:35:38;;;;;;;;;;;;;;;;;;5049828;28;4811;-57
2023/05/14 12:38:04;;;;;;;;;;;;;;;;;;5050921;28;1198;-58
2023/05/14 12:40:29;;;;;;;;;;;;;;;;;;5048627;28;5110;-57
2023/05/14 12:42:54;;;;;;;;;;;;;;;;;;5072671;28;5147;-57
2023/05/14 12:45:19;;;;;;;;;;;;;;;;;;5049294;28;4579;-57
2023/05/14 12:47:45;;;;;;;;;;;;;;;;;;5048782;28;4489;-58
2023/05/14 12:50:10;;;;;;;;;;;;;;;;;;5050112;28;3078;-54
2023/05/14 12:52:35;;;;;;;;;;;;;;;;;;5049668;28;4460;-56
2023/05/14 12:55:00;;;;;;;;;;;;;;;;;;5048396;28;4670;-57
2023/05/14 12:57:27;;;;;;;;;;;;;;;;;;5046196;28;4537;-56
2023/05/14 12:59:52;;;;;;;;;;;;;;;;;;5046945;28;4464;-56
2023/05/14 13:02:17;;;;;;;;;;;;;;;;;;5049385;28;3482;-56
2023/05/14 13:04:43;;;;;;;;;;;;;;;;;;5043308;28;4572;-56
2023/05/14 13:07:08;;;;;;;;;;;;;;;;;;5048864;28;4966;-57
2023/05/14 13:09:33;;;;;;;;;;;;;;;;;;5047285;28;4592;-57
2023/05/14 13:11:58;;;;;;;;;;;;;;;;;;5054853;28;5118;-57
2023/05/14 13:14:23;;;;;;;;;;;;;;;;;;5049988;28;5034;-56
2023/05/14 13:16:49;;;;;;;;;;;;;;;;;;5042733;28;3304;-56
2023/05/14 13:19:14;;;;;;;;;;;;;;;;;;5051181;28;4583;-57
2023/05/14 13:21:39;;;;;;;;;;;;;;;;;;5052129;28;4642;-57
2023/05/14 13:24:05;;;;;;;;;;;;;;;;;;5051361;28;4852;-56
2023/05/14 13:26:30;;;;;;;;;;;;;;;;;;5052056;28;4704;-57
2023/05/14 13:28:55;;;;;;;;;;;;;;;;;;5047449;28;3624;-56
2023/05/14 13:31:21;;;;;;;;;;;;;;;;;;5045682;28;4496;-56
2023/05/14 13:33:46;;;;;;;;;;;;;;;;;;5055627;28;4516;-57
2023/05/14 13:36:12;;;;;;;;;;;;;;;;;;5051541;28;4598;-57
2023/05/14 13:38:37;;;;;;;;;;;;;;;;;;5057161;28;4446;-53
2023/05/14 13:41:03;;;;;;;;;;;;;;;;;;5053048;28;3369;-57
2023/05/14 13:43:29;;;;;;;;;;;;;;;;;;5047089;28;4480;-57
2023/05/14 13:45:54;;;;;;;;;;;;;;;;;;5045514;28;4593;-57
2023/05/14 13:48:20;;;;;;;;;;;;;;;;;;5076608;28;4576;-56
2023/05/14 13:50:45;;;;;;;;;;;;;;;;;;5046897;28;5581;-56
2023/05/14 13:53:10;;;;;;;;;;;;;;;;;;5047119;28;2361;-57
2023/05/14 13:55:35;;;;;;;;;;;;;;;;;;5046670;28;5283;-57
2023/05/14 13:58:01;;;;;;;;;;;;;;;;;;5046207;28;4478;-55
2023/05/14 14:00:26;;;;;;;;;;;;;;;;;;5046644;28;5033;-57
2023/05/14 14:02:51;;;;;;;;;;;;;;;;;;5047402;28;4991;-57
2023/05/14 14:05:17;;;;;;;;;;;;;;;;;;5044345;28;1898;-56
2023/05/14 14:07:42;;;;;;;;;;;;;;;;;;5046678;28;4673;-57
2023/05/14 14:10:07;;;;;;;;;;;;;;;;;;5046737;28;4441;-57
2023/05/14 14:12:33;;;;;;;;;;;;;;;;;;5045954;28;4672;-57
2023/05/14 14:14:58;;;;;;;;;;;;;;;;;;5046051;28;4449;-57
2023/05/14 14:17:23;;;;;;;;;;;;;;;;;;5042808;28;4456;-57
2023/05/14 14:19:49;;;;;;;;;;;;;;;;;;5047939;28;1148;-57
2023/05/14 14:22:16;;;;;;;;;;;;;;;;;;5047645;28;5067;-57
2023/05/14 14:24:41;;;;;;;;;;;;;;;;;;5047629;28;4469;-57
2023/05/14 14:27:06;;;;;;;;;;;;;;;;;;5047481;28;4431;-57
2023/05/14 14:29:33;;;;;;;;;;;;;;;;;;5048331;28;4622;-57
2023/05/14 14:31:58;;;;;;;;;;;;;;;;;;5048536;28;1635;-57
2023/05/14 14:34:23;;;;;;;;;;;;;;;;;;5047969;28;4651;-57
2023/05/14 14:36:49;;;;;;;;;;;;;;;;;;5048253;28;4638;-57
2023/05/14 14:39:14;;;;;;;;;;;;;;;;;;5047650;28;6013;-57
2023/05/14 14:41:39;;;;;;;;;;;;;;;;;;5047561;28;4668;-56
2023/05/14 14:44:04;;;;;;;;;;;;;;;;;;5048215;28;1950;-57
2023/05/14 14:46:30;;;;;;;;;;;;;;;;;;5047671;28;5101;-57
2023/05/14 14:48:56;;;;;;;;;;;;;;;;;;5042598;28;4473;-56
2023/05/14 14:51:21;;;;;;;;;;;;;;;;;;5047898;28;4599;-57
2023/05/14 14:53:46;;;;;;;;;;;;;;;;;;5047230;28;4427;-57
2023/05/14 14:56:11;;;;;;;;;;;;;;;;;;5047747;28;1172;-56
2023/05/14 14:58:37;;;;;;;;;;;;;;;;;;5047540;28;4923;-56
2023/05/14 15:01:02;;;;;;;;;;;;;;;;;;5047186;28;4414;-56
2023/05/14 15:03:27;;;;;;;;;;;;;;;;;;5045767;28;4606;-56
2023/05/14 15:05:53;;;;;;;;;;;;;;;;;;5047314;28;4630;-56
2023/05/14 15:08:19;;;;;;;;;;;;;;;;;;5046067;28;1533;-56
2023/05/14 15:10:45;;;;;;;;;;;;;;;;;;5047064;28;4808;-56
2023/05/14 15:13:10;;;;;;;;;;;;;;;;;;5047467;28;5150;-56
2023/05/14 15:15:36;;;;;;;;;;;;;;;;;;5047328;28;4461;-56
2023/05/14 15:18:01;;;;;;;;;;;;;;;;;;5041166;28;4565;-57
2023/05/14 15:20:27;;;;;;;;;;;;;;;;;;5047472;28;4994;-56
2023/05/14 15:22:52;;;;;;;;;;;;;;;;;;5047296;28;1257;-56
2023/05/14 15:25:21;;;;;;;;;;;;;;;;;;5046941;28;5682;-56
2023/05/14 15:27:46;;;;;;;;;;;;;;;;;;5046973;28;4646;-56
2023/05/14 15:30:12;;;;;;;;;;;;;;;;;;5047061;28;4602;-56
2023/05/14 15:32:37;;;;;;;;;;;;;;;;;;5047178;28;4602;-56
2023/05/14 15:35:02;;;;;;;;;;;;;;;;;;5047622;28;1222;-56
2023/05/14 15:37:30;;;;;;;;;;;;;;;;;;5049802;28;5038;-56
2023/05/14 15:39:55;;;;;;;;;;;;;;;;;;5049485;28;4437;-56
2023/05/14 15:42:21;;;;;;;;;;;;;;;;;;5051002;28;4426;-56
2023/05/14 15:44:46;;;;;;;;;;;;;;;;;;5050759;28;5070;-56
2023/05/14 15:47:11;;;;;;;;;;;;;;;;;;5050277;28;1305;-56
2023/05/14 15:49:36;;;;;;;;;;;;;;;;;;5051301;28;4409;-56
2023/05/14 15:52:02;;;;;;;;;;;;;;;;;;5051060;28;4463;-56
2023/05/14 15:54:28;;;;;;;;;;;;;;;;;;5051087;28;5024;-56
2023/05/14 15:56:54;;;;;;;;;;;;;;;;;;5049035;28;4443;-56
2023/05/14 15:59:19;;;;;;;;;;;;;;;;;;5050029;28;1430;-56
2023/05/14 16:01:44;;;;;;;;;;;;;;;;;;5050784;28;4380;-56
2023/05/14 16:04:09;;;;;;;;;;;;;;;;;;5046844;28;4681;-56
2023/05/14 16:06:35;;;;;;;;;;;;;;;;;;5051038;28;4714;-57
2023/05/14 16:09:01;;;;;;;;;;;;;;;;;;5050469;28;5059;-56
2023/05/14 16:11:27;;;;;;;;;;;;;;;;;;5049208;28;4904;-56
2023/05/14 16:13:52;;;;;;;;;;;;;;;;;;5051354;28;1116;-56
2023/05/14 16:16:19;;;;;;;;;;;;;;;;;;5050445;28;4700;-56
2023/05/14 16:18:45;;;;;;;;;;;;;;;;;;5047392;28;4529;-56
2023/05/14 16:21:10;;;;;;;;;;;;;;;;;;5050636;28;4701;-56
2023/05/14 16:23:35;;;;;;;;;;;;;;;;;;5050308;28;4953;-56
2023/05/14 16:26:00;;;;;;;;;;;;;;;;;;5051124;28;1910;-56
2023/05/14 16:28:26;;;;;;;;;;;;;;;;;;5048974;28;4712;-56
2023/05/14 16:30:51;;;;;;;;;;;;;;;;;;5048590;28;4891;-56
2023/05/14 16:33:16;;;;;;;;;;;;;;;;;;5050194;28;4455;-56
2023/05/14 16:35:41;;;;;;;;;;;;;;;;;;5050097;28;4631;-55
2023/05/14 16:38:07;;;;;;;;;;;;;;;;;;5050631;28;1265;-56
2023/05/14 16:40:32;;;;;;;;;;;;;;;;;;5050005;28;4585;-56
2023/05/14 16:42:57;;;;;;;;;;;;;;;;;;5049810;28;4452;-55
2023/05/14 16:45:22;;;;;;;;;;;;;;;;;;5049925;28;5039;-56
2023/05/14 16:47:48;;;;;;;;;;;;;;;;;;5048498;28;4993;-56
2023/05/14 16:50:13;;;;;;;;;;;;;;;;;;5050445;28;1148;-56
2023/05/14 16:52:38;;;;;;;;;;;;;;;;;;5049689;28;5283;-56